createdAt,value
2022-10-07T00:00:28.732Z,61.10
2022-10-07T00:47:29.189Z,60.90
2022-10-07T00:50:03.523Z,61.10
2022-10-07T00:52:36.517Z,61.00
2022-10-07T00:55:10.870Z,61.10
2022-10-07T00:57:40.524Z,61.00
2022-10-07T01:00:10.845Z,61.00
2022-10-07T01:46:52.849Z,60.80
2022-10-07T01:49:21.075Z,60.70
2022-10-07T01:52:09.327Z,60.80
2022-10-07T01:54:57.468Z,60.80
2022-10-07T01:57:36.150Z,60.70
2022-10-07T02:00:07.629Z,60.70
2022-10-07T02:46:48.801Z,60.30
2022-10-07T02:49:21.611Z,60.30
2022-10-07T02:51:55.664Z,60.30
2022-10-07T02:54:31.529Z,60.30
2022-10-07T02:57:01.630Z,60.20
2022-10-07T02:59:32.643Z,60.20
2022-10-07T03:46:02.573Z,60.00
2022-10-07T03:48:33.737Z,60.00
2022-10-07T03:51:03.851Z,60.00
2022-10-07T03:53:34.746Z,60.00
2022-10-07T03:56:04.035Z,60.10
2022-10-07T03:58:34.678Z,60.10
2022-10-07T04:30:19.358Z,59.80
2022-10-07T04:32:49.006Z,59.70
2022-10-07T04:35:17.914Z,59.80
2022-10-07T04:37:46.590Z,59.70
2022-10-07T04:40:15.536Z,59.80
2022-10-07T04:43:02.043Z,59.80
2022-10-07T04:45:34.111Z,59.70
2022-10-07T04:48:03.113Z,59.70
2022-10-07T04:50:31.479Z,59.70
2022-10-07T04:53:00.022Z,59.90
2022-10-07T04:55:35.847Z,59.70
2022-10-07T04:58:04.601Z,59.70
2022-10-07T05:00:35.822Z,59.60
2022-10-07T05:03:05.008Z,59.70
2022-10-07T05:05:33.930Z,59.60
2022-10-07T05:08:02.332Z,60.20
2022-10-07T05:10:30.664Z,59.60
2022-10-07T05:12:58.937Z,59.60
2022-10-07T05:15:27.163Z,59.70
2022-10-07T05:17:56.888Z,59.90
2022-10-07T05:20:27.711Z,59.90
2022-10-07T05:22:56.699Z,59.90
2022-10-07T05:25:24.931Z,60.00
2022-10-07T05:27:55.036Z,60.60
2022-10-07T05:30:23.450Z,61.00
2022-10-07T05:32:54.671Z,63.80
2022-10-07T05:35:25.454Z,62.80
2022-10-07T05:37:55.568Z,62.80
2022-10-07T05:40:24.820Z,62.90
2022-10-07T05:42:53.513Z,62.50
2022-10-07T05:45:22.751Z,62.20
2022-10-07T05:47:51.499Z,62.40
2022-10-07T05:50:19.920Z,62.80
2022-10-07T05:52:51.920Z,61.00
2022-10-07T05:55:20.710Z,59.80
2022-10-07T05:57:49.522Z,59.50
2022-10-07T06:00:18.541Z,60.00
2022-10-07T06:02:52.343Z,59.60
2022-10-07T06:05:23.184Z,59.40
2022-10-07T06:07:53.328Z,57.90
2022-10-07T06:10:39.652Z,58.30
2022-10-07T06:13:08.963Z,58.20
2022-10-07T06:15:39.340Z,57.40
2022-10-07T06:18:08.654Z,56.80
2022-10-07T06:20:37.246Z,57.00
2022-10-07T06:23:07.898Z,56.40
2022-10-07T06:25:36.188Z,56.70
2022-10-07T06:28:04.965Z,56.50
2022-10-07T06:30:33.844Z,57.20
2022-10-07T06:33:03.680Z,57.20
2022-10-07T06:35:31.788Z,56.60
2022-10-07T06:38:00.029Z,57.60
2022-10-07T06:40:29.531Z,57.60
2022-10-07T06:42:57.720Z,57.90
2022-10-07T06:45:32.636Z,58.20
2022-10-07T06:48:01.573Z,57.50
2022-10-07T06:50:30.635Z,56.10
2022-10-07T06:52:58.812Z,56.30
2022-10-07T06:55:33.050Z,56.40
2022-10-07T06:58:05.233Z,56.80
2022-10-07T07:00:36.573Z,57.30
2022-10-07T07:03:05.702Z,57.50
2022-10-07T07:05:41.427Z,58.00
2022-10-07T07:08:15.779Z,57.50
2022-10-07T07:10:46.726Z,57.00
2022-10-07T07:13:15.617Z,56.70
2022-10-07T07:15:43.858Z,57.30
2022-10-07T07:18:12.198Z,57.80
2022-10-07T07:20:41.346Z,59.00
2022-10-07T07:23:11.015Z,58.10
2022-10-07T07:25:44.222Z,58.50
2022-10-07T07:28:16.307Z,57.50
2022-10-07T07:30:44.824Z,57.90
2022-10-07T07:33:12.987Z,58.10
2022-10-07T07:35:48.617Z,58.10
2022-10-07T07:38:17.418Z,58.10
2022-10-07T07:40:45.772Z,58.10
2022-10-07T07:43:15.800Z,58.10
2022-10-07T07:45:44.503Z,58.10
2022-10-07T07:48:13.164Z,58.10
2022-10-07T07:50:41.959Z,58.00
2022-10-07T07:53:10.324Z,58.00
2022-10-07T07:55:38.900Z,57.80
2022-10-07T07:58:11.705Z,58.00
2022-10-07T08:00:42.215Z,58.00
2022-10-07T08:03:10.543Z,58.10
2022-10-07T08:05:39.293Z,57.90
2022-10-07T08:08:09.595Z,57.80
2022-10-07T08:10:40.324Z,57.70
2022-10-07T08:13:10.003Z,57.50
2022-10-07T08:15:38.972Z,57.20
2022-10-07T08:18:09.082Z,56.80
2022-10-07T08:20:38.036Z,57.00
2022-10-07T08:23:08.359Z,56.90
2022-10-07T08:25:37.376Z,56.40
2022-10-07T08:28:08.154Z,56.60
2022-10-07T08:30:38.334Z,56.80
2022-10-07T08:33:10.380Z,57.20
2022-10-07T08:35:38.848Z,57.40
2022-10-07T08:38:14.298Z,57.20
2022-10-07T08:40:49.038Z,57.10
2022-10-07T08:43:18.016Z,57.40
2022-10-07T08:45:46.846Z,57.40
2022-10-07T08:48:22.351Z,57.40
2022-10-07T08:50:59.988Z,57.50
2022-10-07T08:53:34.062Z,57.70
2022-10-07T08:56:12.864Z,57.60
2022-10-07T08:58:51.765Z,57.60
2022-10-07T09:01:34.137Z,57.70
2022-10-07T09:04:19.225Z,58.20
2022-10-07T09:06:54.429Z,57.90
2022-10-07T09:09:29.023Z,57.90
2022-10-07T09:12:01.045Z,57.60
2022-10-07T09:14:32.562Z,57.50
2022-10-07T09:17:10.705Z,57.80
2022-10-07T09:19:45.006Z,57.40
2022-10-07T09:22:21.320Z,57.30
2022-10-07T09:24:53.189Z,57.40
2022-10-07T09:27:23.071Z,57.40
2022-10-07T09:29:51.864Z,57.50
2022-10-07T09:32:21.157Z,57.50
2022-10-07T09:34:52.229Z,57.60
2022-10-07T09:37:23.248Z,57.30
2022-10-07T09:39:54.190Z,57.60
2022-10-07T09:42:35.085Z,58.30
2022-10-07T09:45:17.964Z,58.40
2022-10-07T09:47:51.356Z,59.70
2022-10-07T09:50:48.687Z,59.50
2022-10-07T09:53:22.843Z,59.30
2022-10-07T09:55:54.634Z,58.80
2022-10-07T09:58:27.694Z,58.70
2022-10-07T10:00:58.579Z,58.60
2022-10-07T10:03:32.571Z,58.60
2022-10-07T10:06:04.906Z,58.50
2022-10-07T10:08:35.918Z,58.50
2022-10-07T10:11:07.727Z,58.50
2022-10-07T10:13:42.534Z,58.70
2022-10-07T10:16:34.513Z,60.80
2022-10-07T10:19:06.005Z,59.70
2022-10-07T10:21:41.143Z,59.60
2022-10-07T10:24:16.083Z,59.70
2022-10-07T10:26:56.689Z,59.60
2022-10-07T10:29:39.048Z,59.50
2022-10-07T10:32:48.536Z,59.50
2022-10-07T10:35:25.677Z,59.40
2022-10-07T10:38:21.214Z,59.20
2022-10-07T10:40:57.105Z,59.30
2022-10-07T10:43:36.824Z,59.30
2022-10-07T10:46:25.930Z,59.40
2022-10-07T10:49:02.410Z,59.40
2022-10-07T10:51:50.755Z,59.30
2022-10-07T10:54:30.307Z,59.20
2022-10-07T10:57:06.564Z,59.20
2022-10-07T11:00:11.235Z,59.20
2022-10-07T11:03:07.445Z,59.30
2022-10-07T11:05:38.363Z,59.70
2022-10-07T11:08:16.973Z,59.20
2022-10-07T11:10:55.634Z,59.00
2022-10-07T11:13:34.689Z,58.80
2022-10-07T11:16:11.124Z,58.70
2022-10-07T11:18:46.174Z,58.50
2022-10-07T11:21:21.662Z,59.20
2022-10-07T11:24:00.000Z,58.70
2022-10-07T11:26:36.517Z,58.50
2022-10-07T11:29:23.257Z,58.50
2022-10-07T11:31:59.001Z,58.30
2022-10-07T11:34:42.261Z,58.40
2022-10-07T11:37:19.300Z,58.60
2022-10-07T11:39:48.073Z,58.40
2022-10-07T11:42:23.792Z,58.30
2022-10-07T11:45:00.277Z,58.40
2022-10-07T11:47:36.278Z,58.40
2022-10-07T11:50:11.469Z,58.40
2022-10-07T11:52:45.942Z,58.50
2022-10-07T11:55:27.671Z,58.10
2022-10-07T11:58:01.151Z,58.10
2022-10-07T12:00:32.681Z,58.30
2022-10-07T12:03:27.710Z,58.30
2022-10-07T12:06:08.125Z,58.10
2022-10-07T12:08:38.379Z,58.10
2022-10-07T12:11:47.319Z,58.30
2022-10-07T12:14:59.282Z,58.30
2022-10-07T12:17:30.023Z,58.60
2022-10-07T12:20:46.262Z,58.70
2022-10-07T12:24:02.165Z,59.30
2022-10-07T12:26:53.741Z,61.80
2022-10-07T12:29:36.009Z,61.20
2022-10-07T12:32:05.036Z,60.50
2022-10-07T12:34:43.425Z,59.90
2022-10-07T12:37:50.166Z,59.80
2022-10-07T12:40:27.579Z,59.80
2022-10-07T12:43:06.321Z,59.80
2022-10-07T12:45:37.469Z,59.80
2022-10-07T12:48:06.342Z,59.90
2022-10-07T12:50:34.771Z,59.90
2022-10-07T12:53:04.669Z,59.90
2022-10-07T12:55:38.116Z,60.10
2022-10-07T12:58:37.339Z,59.60
2022-10-07T13:01:23.084Z,58.50
2022-10-07T13:04:39.158Z,57.10
2022-10-07T13:08:01.630Z,55.30
2022-10-07T13:11:22.461Z,53.70
2022-10-07T13:13:59.038Z,53.90
2022-10-07T13:16:35.383Z,55.00
2022-10-07T13:19:14.169Z,54.80
2022-10-07T13:21:47.935Z,52.80
2022-10-07T13:24:20.688Z,52.80
2022-10-07T13:26:49.067Z,52.90
2022-10-07T13:29:24.624Z,53.50
2022-10-07T13:32:15.066Z,53.80
2022-10-07T13:34:46.205Z,52.90
2022-10-07T13:37:29.858Z,53.00
2022-10-07T13:40:19.376Z,53.00
2022-10-07T13:42:55.076Z,52.10
2022-10-07T13:45:24.209Z,51.70
2022-10-07T13:47:52.831Z,50.60
2022-10-07T13:50:26.290Z,51.40
2022-10-07T13:52:56.494Z,52.20
2022-10-07T13:55:30.599Z,52.40
2022-10-07T13:58:04.369Z,53.40
2022-10-07T14:00:35.400Z,53.20
2022-10-07T14:03:13.388Z,52.60
2022-10-07T14:05:51.823Z,52.00
2022-10-07T14:08:24.214Z,51.70
2022-10-07T14:10:59.854Z,52.00
2022-10-07T14:13:29.699Z,52.50
2022-10-07T14:15:59.812Z,52.80
2022-10-07T14:18:31.249Z,53.20
2022-10-07T14:21:16.934Z,53.60
2022-10-07T14:23:47.104Z,53.70
2022-10-07T14:26:17.615Z,54.40
2022-10-07T14:28:47.360Z,54.60
2022-10-07T14:31:38.713Z,54.60
2022-10-07T14:34:33.467Z,55.00
2022-10-07T14:37:08.363Z,55.10
2022-10-07T14:39:39.602Z,55.50
2022-10-07T14:42:14.246Z,55.40
2022-10-07T14:44:44.736Z,55.40
2022-10-07T14:47:15.741Z,55.60
2022-10-07T14:49:44.596Z,55.60
2022-10-07T14:52:21.377Z,55.70
2022-10-07T14:54:50.795Z,55.70
2022-10-07T14:57:19.135Z,55.60
2022-10-07T14:59:50.002Z,55.60
2022-10-07T15:02:18.303Z,55.60
2022-10-07T15:04:47.496Z,55.50
2022-10-07T15:07:17.392Z,55.60
2022-10-07T15:09:47.031Z,55.60
2022-10-07T15:12:17.064Z,55.80
2022-10-07T15:14:45.517Z,55.70
2022-10-07T15:17:15.286Z,56.50
2022-10-07T15:19:43.815Z,55.90
2022-10-07T15:22:11.978Z,55.30
2022-10-07T15:24:40.557Z,55.20
2022-10-07T15:27:09.864Z,55.40
2022-10-07T15:29:38.715Z,55.60
2022-10-07T15:32:08.829Z,56.40
2022-10-07T15:34:38.744Z,55.80
2022-10-07T15:37:08.068Z,56.40
2022-10-07T15:39:39.601Z,56.50
2022-10-07T15:42:09.927Z,56.80
2022-10-07T15:44:38.124Z,56.60
2022-10-07T15:47:06.325Z,57.30
2022-10-07T15:49:36.074Z,57.50
2022-10-07T15:52:06.302Z,57.60
2022-10-07T15:54:35.514Z,58.20
2022-10-07T15:57:04.449Z,58.60
2022-10-07T15:59:33.055Z,58.70
2022-10-07T16:02:01.883Z,58.80
2022-10-07T16:04:30.339Z,58.60
2022-10-07T16:06:59.593Z,58.60
2022-10-07T16:09:29.628Z,58.50
2022-10-07T16:11:58.018Z,58.50
2022-10-07T16:14:26.406Z,58.50
2022-10-07T16:16:54.953Z,58.90
2022-10-07T16:19:23.416Z,59.00
2022-10-07T16:21:51.672Z,59.00
2022-10-07T16:24:21.818Z,58.90
2022-10-07T16:26:51.687Z,59.10
2022-10-07T16:29:39.656Z,59.00
2022-10-07T16:32:10.673Z,59.00
2022-10-07T16:34:43.185Z,59.00
2022-10-07T16:37:12.452Z,59.20
2022-10-07T16:39:40.811Z,59.10
2022-10-07T16:42:11.191Z,59.20
2022-10-07T16:44:39.498Z,59.20
2022-10-07T16:47:08.076Z,59.30
2022-10-07T16:49:36.923Z,59.30
2022-10-07T16:52:06.382Z,59.30
2022-10-07T16:54:35.465Z,59.20
2022-10-07T16:57:03.674Z,59.30
2022-10-07T16:59:33.467Z,59.40
2022-10-07T17:02:03.178Z,59.40
2022-10-07T17:04:31.678Z,59.40
2022-10-07T17:06:59.928Z,59.40
2022-10-07T17:09:28.204Z,59.50
2022-10-07T17:11:56.779Z,59.50
2022-10-07T17:14:25.227Z,59.50
2022-10-07T17:16:58.647Z,62.20
2022-10-07T17:19:29.525Z,60.20
2022-10-07T17:21:59.465Z,59.90
2022-10-07T17:24:27.617Z,59.70
2022-10-07T17:26:56.460Z,59.70
2022-10-07T17:29:26.317Z,59.70
2022-10-07T17:31:56.927Z,59.80
2022-10-07T17:34:26.234Z,59.80
2022-10-07T17:36:55.105Z,59.90
2022-10-07T17:39:23.333Z,61.30
2022-10-07T17:41:51.836Z,60.80
2022-10-07T17:44:21.455Z,62.60
2022-10-07T17:46:50.375Z,62.90
2022-10-07T17:49:20.646Z,62.40
2022-10-07T17:51:49.200Z,65.20
2022-10-07T17:54:17.496Z,65.60
2022-10-07T17:56:45.701Z,67.90
2022-10-07T17:59:14.287Z,71.80
2022-10-07T18:01:44.410Z,71.00
2022-10-07T18:04:18.850Z,80.10
2022-10-07T18:06:50.734Z,76.50
2022-10-07T18:09:19.277Z,74.00
2022-10-07T18:12:05.366Z,73.30
2022-10-07T18:14:54.085Z,71.60
2022-10-07T18:17:23.085Z,72.10
2022-10-07T18:19:51.264Z,70.80
2022-10-07T18:22:21.294Z,70.20
2022-10-07T18:24:49.838Z,69.80
2022-10-07T18:27:18.061Z,69.70
2022-10-07T18:29:46.281Z,70.50
2022-10-07T18:32:14.420Z,70.60
2022-10-07T18:34:42.551Z,70.30
2022-10-07T18:37:10.764Z,69.60
2022-10-07T18:39:40.845Z,69.60
2022-10-07T18:42:09.203Z,69.10
2022-10-07T18:44:37.509Z,70.60
2022-10-07T18:47:05.700Z,68.30
2022-10-07T18:49:33.789Z,67.90
2022-10-07T18:52:02.568Z,64.40
2022-10-07T18:54:30.625Z,60.20
2022-10-07T18:57:00.140Z,62.70
2022-10-07T18:59:28.383Z,61.00
2022-10-07T19:01:56.723Z,62.10
2022-10-07T19:04:25.406Z,61.60
2022-10-07T19:06:53.612Z,61.90
2022-10-07T19:09:23.378Z,62.50
2022-10-07T19:11:51.809Z,60.90
2022-10-07T19:14:20.696Z,61.50
2022-10-07T19:16:50.333Z,60.50
2022-10-07T19:19:21.077Z,60.20
2022-10-07T19:21:52.330Z,60.80
2022-10-07T19:24:41.548Z,60.60
2022-10-07T19:27:09.765Z,60.10
2022-10-07T19:29:39.635Z,59.80
2022-10-07T19:32:08.725Z,59.60
2022-10-07T19:34:37.676Z,59.30
2022-10-07T19:37:05.967Z,59.10
2022-10-07T19:39:34.317Z,59.70
2022-10-07T19:42:02.581Z,59.50
2022-10-07T19:44:31.712Z,59.40
2022-10-07T19:47:01.515Z,59.30
2022-10-07T19:49:29.566Z,59.00
2022-10-07T19:51:57.770Z,60.00
2022-10-07T19:54:26.192Z,60.10
2022-10-07T19:56:54.351Z,59.80
2022-10-07T19:59:22.497Z,59.80
2022-10-07T20:01:52.445Z,59.70
2022-10-07T20:04:21.933Z,59.40
2022-10-07T20:06:50.677Z,59.50
2022-10-07T20:09:20.045Z,59.40
2022-10-07T20:11:48.620Z,59.30
2022-10-07T20:14:16.873Z,59.30
2022-10-07T20:16:45.201Z,59.30
2022-10-07T20:19:18.830Z,59.20
2022-10-07T20:21:48.862Z,59.30
2022-10-07T20:24:17.859Z,59.20
2022-10-07T20:26:46.409Z,59.20
2022-10-07T20:29:16.238Z,59.10
2022-10-07T20:31:46.290Z,59.00
2022-10-07T20:34:20.354Z,59.00
2022-10-07T20:36:50.551Z,58.90
2022-10-07T20:39:38.767Z,58.90
2022-10-07T20:42:25.036Z,59.00
2022-10-07T20:44:54.516Z,58.90
2022-10-07T20:47:26.090Z,59.00
2022-10-07T20:49:56.656Z,59.10
2022-10-07T20:52:28.800Z,59.20
2022-10-07T20:54:57.170Z,59.00
2022-10-07T20:57:27.651Z,58.90
2022-10-07T20:59:56.309Z,58.90
2022-10-07T21:02:25.531Z,59.10
2022-10-07T21:04:54.169Z,59.10
2022-10-07T21:07:22.674Z,59.20
2022-10-07T21:09:52.986Z,58.90
2022-10-07T21:12:21.975Z,58.60
2022-10-07T21:14:51.134Z,58.70
2022-10-07T21:17:19.279Z,58.70
2022-10-07T21:19:47.680Z,58.90
2022-10-07T21:22:15.952Z,59.00
2022-10-07T21:24:44.102Z,59.10
2022-10-07T21:27:14.189Z,59.20
2022-10-07T21:29:46.801Z,59.30
2022-10-07T21:32:16.656Z,59.40
2022-10-07T21:34:44.781Z,59.40
2022-10-07T21:37:13.245Z,59.50
2022-10-07T21:39:41.703Z,59.60
2022-10-07T21:42:10.286Z,59.70
2022-10-07T21:44:40.190Z,59.70
2022-10-07T21:47:08.496Z,59.80
2022-10-07T21:49:36.718Z,60.00
2022-10-07T21:52:05.245Z,59.70
2022-10-07T21:54:33.570Z,59.80
2022-10-07T21:57:03.391Z,59.80
2022-10-07T21:59:33.615Z,59.70
2022-10-07T22:02:03.262Z,59.70
2022-10-07T22:04:31.469Z,59.70
2022-10-07T22:07:17.575Z,59.70
2022-10-07T22:09:45.969Z,59.70
2022-10-07T22:12:15.315Z,59.80
2022-10-07T22:14:44.509Z,59.90
2022-10-07T22:17:14.728Z,60.00
2022-10-07T22:19:42.984Z,60.00
2022-10-07T22:22:12.904Z,59.90
2022-10-07T22:24:41.135Z,60.00
2022-10-07T22:27:09.253Z,60.10
2022-10-07T22:29:38.380Z,60.10
2022-10-07T22:32:06.730Z,60.00
2022-10-07T22:34:53.655Z,60.00
2022-10-07T22:37:22.247Z,60.00
2022-10-07T22:39:50.342Z,60.00
2022-10-07T22:42:18.532Z,60.00
2022-10-07T22:44:46.601Z,59.90
2022-10-07T22:47:16.471Z,60.00
2022-10-07T22:49:45.900Z,59.80
2022-10-07T22:52:14.537Z,59.80
2022-10-07T22:54:42.648Z,59.70
2022-10-07T22:57:10.773Z,59.50
2022-10-07T22:59:39.666Z,59.40
2022-10-07T23:46:24.659Z,58.90
2022-10-07T23:48:53.209Z,58.70
2022-10-07T23:51:24.153Z,58.60
2022-10-07T23:53:52.640Z,59.20
2022-10-07T23:56:20.794Z,58.50
2022-10-07T23:58:49.040Z,58.50
